Terminal Aerodrome Forecast
Issued by NWS

Home | Current Version | Previous Version | Graphics & Text | Print | Product List | Glossary On
Versions: 1 2 3 4 5 6 7 8 9 10 11 12 13 14 15 16 17 18 19 20 21 22 23 24 25 26
000
FTUS43 KTOP 241736
TAFMHK
TAF
KMHK 241736Z 2418/2518 22007KT P6SM VCTS OVC050CB
     FM242100 02011G23KT P6SM -TSRA BKN050CB
      TEMPO 2421/2423 2SM TSRA OVC015CB
     FM250000 03013G20KT P6SM -SHRA VCTS BKN025CB
     FM250800 36010G20KT 5SM -SHRA OVC008=

USA.gov is the U.S. government's official web portal to all federal, state and local government web resources and services.